Time;durP1;ratioP1;P1;durP2;ratioP2;P2;SDS_P1;SDS_P2;PMS_P1;PMS_P2;Temp;Humidity;BMP_temperature;BMP_pressure;BME280_temperature;BME280_humidity;BME280_pressure;Samples;Min_cycle;Max_cycle;Signal;HPM_P1;HPM_P2
2022/04/21 00:00:49;;;;;;;;;65.67;50.00;;;;;4.17;78.43;99251.91;6308176;20;3637926;-48
2022/04/21 00:03:19;;;;;;;;;61.00;50.00;;;;;4.32;76.88;99245.09;6313396;20;2855093;-52
2022/04/21 00:05:48;;;;;;;;;72.00;55.00;;;;;4.49;75.81;99248.81;6282800;20;2875316;-46
2022/04/21 00:08:20;;;;;;;;;67.00;52.33;;;;;3.73;79.43;99256.41;6312909;20;3632565;-48
2022/04/21 00:10:49;;;;;;;;;68.00;52.50;;;;;3.26;80.77;99257.34;6310465;20;2865869;-50
2022/04/21 00:13:18;;;;;;;;;77.00;53.00;;;;;3.13;80.75;99260.56;6283014;20;3647131;-47
2022/04/21 00:15:47;;;;;;;;;71.00;55.50;;;;;2.50;82.40;99249.63;6309386;20;2883800;-49
2022/04/21 00:18:17;;;;;;;;;69.00;53.67;;;;;2.44;84.26;99247.19;6281864;20;2878477;-47
2022/04/21 00:20:46;;;;;;;;;70.33;55.00;;;;;2.76;83.20;99246.03;6311317;20;2878672;-47
2022/04/21 00:23:27;;;;;;;;;71.33;55.00;;;;;2.79;82.39;99252.09;6311124;20;3609583;-49
2022/04/21 00:26:00;;;;;;;;;70.50;57.00;;;;;2.91;82.78;99249.91;6281811;20;2876353;-47
2022/04/21 00:28:29;;;;;;;;;39.50;28.00;;;;;3.13;81.49;99256.09;6285054;20;2828564;-47
2022/04/21 00:30:59;;;;;;;;;77.33;56.67;;;;;3.19;81.55;99252.38;6280873;20;2876374;-48
2022/04/21 00:33:28;;;;;;;;;66.00;53.00;;;;;3.08;82.00;99252.75;6314342;20;2865882;-47
2022/04/21 00:35:57;;;;;;;;;67.50;54.00;;;;;2.94;82.93;99253.28;6281598;20;2878434;-48
2022/04/21 00:38:26;;;;;;;;;69.00;54.33;;;;;3.20;82.32;99262.06;6282596;20;2881224;-48
2022/04/21 00:40:56;;;;;;;;;74.33;58.00;;;;;3.10;82.02;99252.72;6313750;20;2878437;-49
2022/04/21 00:43:24;;;;;;;;;69.50;55.50;;;;;2.97;83.80;99250.50;6311315;20;2875303;-45
2022/04/21 00:45:56;;;;;;;;;71.00;54.33;;;;;3.20;81.76;99256.75;6280916;20;2882619;-49
2022/04/21 00:48:25;;;;;;;;;64.00;44.50;;;;;2.76;82.40;99251.31;6311732;20;2882554;-50
2022/04/21 00:50:55;;;;;;;;;72.50;57.00;;;;;3.09;82.76;99254.50;6278514;20;2875269;-51
2022/04/21 00:53:24;;;;;;;;;74.00;57.00;;;;;2.61;84.00;99260.72;6280598;20;2883661;-46
2022/04/21 00:55:55;;;;;;;;;75.67;57.67;;;;;2.98;82.69;99262.88;6310006;20;3640870;-50
2022/04/21 00:58:25;;;;;;;;;96.67;76.00;;;;;2.73;84.09;99262.91;6309045;20;3657506;-51
2022/04/21 01:00:55;;;;;;;;;89.67;67.67;;;;;2.42;85.11;99250.78;6310327;20;3644004;-49
2022/04/21 01:03:26;;;;;;;;;92.67;69.33;;;;;2.67;85.38;99257.84;6310271;20;3648321;-49
2022/04/21 01:05:55;;;;;;;;;83.33;62.67;;;;;2.62;84.83;99254.47;6308899;20;3640841;-48
2022/04/21 01:08:25;;;;;;;;;87.67;63.00;;;;;2.35;86.35;99253.69;6309882;20;3637812;-49
2022/04/21 01:10:55;;;;;;;;;89.33;68.33;;;;;2.56;85.63;99252.06;6310318;20;3639804;-47
2022/04/21 01:13:24;;;;;;;;;96.33;68.00;;;;;2.72;85.50;99249.72;6310125;20;3655491;-48
2022/04/21 01:15:54;;;;;;;;;92.67;72.00;;;;;2.45;85.41;99260.41;6307818;20;3649292;-46
2022/04/21 01:18:30;;;;;;;;;85.67;66.33;;;;;2.54;86.18;99257.41;6311366;20;2873163;-49
2022/04/21 01:20:58;;;;;;;;;84.00;63.50;;;;;2.64;85.61;99253.50;6304915;20;2457542;-46
2022/04/21 01:23:28;;;;;;;;;84.33;64.67;;;;;2.65;84.77;99249.06;6277282;20;3645066;-47
2022/04/21 01:25:58;;;;;;;;;75.67;60.00;;;;;2.67;84.52;99249.88;6310895;20;2862768;-51
2022/04/21 01:28:30;;;;;;;;;82.00;60.00;;;;;3.05;81.78;99252.88;6309665;20;2850861;-51
2022/04/21 01:30:59;;;;;;;;;74.00;55.67;;;;;3.01;82.92;99260.09;6278926;20;2873169;-51
2022/04/21 01:33:29;;;;;;;;;85.33;61.33;;;;;3.01;83.38;99259.25;6309923;20;3666440;-48
2022/04/21 01:35:59;;;;;;;;;84.67;63.00;;;;;3.06;83.26;99254.63;6311204;20;3636742;-49
2022/04/21 01:41:16;;;;;;;;;80.33;61.00;;;;;2.77;83.73;99245.13;6312971;20;3639876;-47
2022/04/21 01:43:46;;;;;;;;;83.00;61.33;;;;;2.77;84.25;99247.78;6310858;20;3647114;-48
2022/04/21 01:46:15;;;;;;;;;80.00;63.00;;;;;2.59;85.05;99244.84;6311414;20;2872217;-49
2022/04/21 01:48:45;;;;;;;;;85.00;63.67;;;;;2.67;84.78;99243.72;6310802;20;3647123;-50
2022/04/21 01:51:15;;;;;;;;;81.67;61.00;;;;;2.84;84.28;99244.84;6312338;20;3640898;-49
2022/04/21 01:53:44;;;;;;;;;78.67;60.00;;;;;2.72;83.56;99241.78;6309477;20;2891010;-46
2022/04/21 01:56:14;;;;;;;;;76.33;58.33;;;;;3.06;81.41;99244.03;6311398;20;3635635;-48
2022/04/21 01:58:45;;;;;;;;;77.00;57.00;;;;;2.81;82.73;99239.63;6308833;20;3641985;-50
2022/04/21 02:01:14;;;;;;;;;83.33;61.00;;;;;2.91;81.33;99239.28;6309289;20;3635653;-48
2022/04/21 02:03:44;;;;;;;;;78.00;58.67;;;;;2.70;82.77;99238.31;6309740;20;2890990;-49
2022/04/21 02:06:14;;;;;;;;;80.33;61.67;;;;;2.76;83.32;99235.41;6309312;20;2888886;-48
2022/04/21 02:08:43;;;;;;;;;77.00;57.00;;;;;2.08;84.27;99236.94;6311383;20;2875444;-48
2022/04/21 02:11:12;;;;;;;;;81.00;55.67;;;;;2.35;84.78;99230.72;6279753;20;3649181;-45
2022/04/21 02:13:47;;;;;;;;;77.33;59.00;;;;;1.99;85.45;99232.84;6310191;20;2887832;-51
2022/04/21 02:16:16;;;;;;;;;75.67;58.00;;;;;2.38;85.03;99212.06;6305590;20;3651347;-45
2022/04/21 02:18:47;;;;;;;;;79.33;59.00;;;;;2.65;85.08;99219.91;6310655;20;3634595;-46
2022/04/21 02:21:17;;;;;;;;;77.67;62.67;;;;;2.33;85.64;99227.25;6312103;20;2872142;-46
2022/04/21 02:23:46;;;;;;;;;79.00;61.67;;;;;2.33;86.28;99232.53;6312632;20;2886774;-47
2022/04/21 02:26:16;;;;;;;;;81.67;63.33;;;;;2.61;84.44;99227.13;6316217;20;3636703;-49
2022/04/21 02:28:45;;;;;;;;;86.33;63.67;;;;;2.49;85.48;99221.41;6311421;20;3659591;-50
2022/04/21 02:31:15;;;;;;;;;78.33;60.00;;;;;2.13;86.63;99230.59;6315515;20;2879554;-48
2022/04/21 02:33:44;;;;;;;;;80.00;62.00;;;;;2.18;86.07;99217.19;6314413;20;2887846;-47
2022/04/21 02:36:14;;;;;;;;;78.67;60.33;;;;;2.56;85.23;99217.63;6313186;20;3642945;-46
2022/04/21 02:38:43;;;;;;;;;77.00;59.00;;;;;2.43;86.30;99227.78;6313601;20;2879506;-49
2022/04/21 02:41:13;;;;;;;;;79.33;62.00;;;;;2.27;86.20;99223.97;6315626;20;2878516;-50
2022/04/21 02:43:42;;;;;;;;;85.00;63.50;;;;;2.07;87.75;99229.94;6313464;20;2702336;-47
2022/04/21 02:46:10;;;;;;;;;80.50;61.50;;;;;2.45;86.56;99230.38;6315996;20;2876400;-45
2022/04/21 02:48:40;;;;;;;;;81.67;64.33;;;;;1.97;86.36;99222.31;6280021;20;3624314;-47
2022/04/21 02:51:10;;;;;;;;;86.00;65.00;;;;;2.23;87.40;99225.84;6314855;20;3651427;-46
2022/04/21 02:59:16;;;;;;;;;91.33;67.00;;;;;2.22;86.87;99218.81;6312052;20;2885780;-52
2022/04/21 03:01:46;;;;;;;;;94.67;67.67;;;;;2.17;88.02;99215.47;6313716;20;3654425;-52
2022/04/21 03:04:16;;;;;;;;;85.00;64.33;;;;;2.24;87.17;99213.44;6311390;20;3634623;-50
2022/04/21 03:06:45;;;;;;;;;85.00;63.33;;;;;2.24;86.87;99211.69;6314739;20;3652309;-48
2022/04/21 03:09:15;;;;;;;;;88.67;68.67;;;;;2.22;87.37;99217.97;6313218;20;3647191;-47
2022/04/21 03:11:44;;;;;;;;;88.00;67.50;;;;;2.17;87.58;99215.47;6313713;20;2705464;-48
2022/04/21 03:14:14;;;;;;;;;88.00;66.00;;;;;2.46;87.13;99210.91;6312042;20;3661665;-49
2022/04/21 03:16:45;;;;;;;;;83.67;62.00;;;;;2.28;87.03;99209.78;6310260;20;3655509;-47
2022/04/21 03:19:14;;;;;;;;;86.67;69.00;;;;;2.28;86.98;99202.69;6310240;20;3632542;-48
2022/04/21 03:24:32;;;;;;;;;76.00;62.00;;;;;2.50;86.08;99208.09;6311595;20;2881724;-47
2022/04/21 03:27:03;;;;;;;;;93.00;66.33;;;;;2.98;83.61;99208.97;6280953;20;3656489;-49
2022/04/21 03:29:37;;;;;;;;;90.33;66.33;;;;;2.68;84.95;99200.38;6311604;20;3656515;-46
2022/04/21 03:32:10;;;;;;;;;85.67;65.00;;;;;2.80;85.14;99199.94;6314274;20;2886775;-51
2022/04/21 03:34:44;;;;;;;;;84.67;65.33;;;;;2.54;86.46;99203.56;6313748;20;3645091;-53
2022/04/21 03:37:16;;;;;;;;;88.67;64.67;;;;;2.55;86.18;99199.97;6313126;20;3652345;-50
2022/04/21 03:39:46;;;;;;;;;86.00;66.33;;;;;2.55;87.21;99202.63;6312769;20;3630472;-48
2022/04/21 03:42:27;;;;;;;;;90.67;67.67;;;;;2.96;85.63;99213.47;6314544;20;3645519;-47
2022/04/21 03:44:57;;;;;;;;;80.67;63.67;;;;;2.98;85.31;99215.13;6309799;20;2856563;-48
2022/04/21 03:47:27;;;;;;;;;82.67;62.67;;;;;2.84;86.09;99213.03;6314344;20;3650261;-49
2022/04/21 03:49:57;;;;;;;;;86.67;63.67;;;;;3.27;83.59;99214.00;6311464;20;3659580;-49
2022/04/21 03:52:26;;;;;;;;;88.33;66.33;;;;;3.13;84.60;99218.97;6280723;20;3641929;-48
2022/04/21 03:54:56;;;;;;;;;69.33;52.00;;;;;3.32;83.34;99223.56;6312323;20;2890987;-46
2022/04/21 03:57:27;;;;;;;;;86.67;60.00;;;;;3.17;83.48;99227.69;6313890;20;3659675;-48
2022/04/21 03:59:57;;;;;;;;;87.00;64.00;;;;;3.39;82.77;99222.41;6277779;20;3641890;-46
2022/04/21 04:02:26;;;;;;;;;84.00;64.00;;;;;3.35;83.06;99229.63;6314080;20;3651257;-49
2022/04/21 04:04:56;;;;;;;;;84.33;62.67;;;;;3.41;82.09;99228.50;6310709;20;3650231;-50
2022/04/21 04:13:02;;;;;;;;;77.00;58.00;;;;;2.37;85.73;99228.88;6313283;20;3630456;-49
2022/04/21 04:15:32;;;;;;;;;80.33;61.33;;;;;2.13;86.41;99230.59;6308983;20;3646051;-48
2022/04/21 04:18:02;;;;;;;;;79.00;60.67;;;;;1.71;88.57;99219.66;6311820;20;2881595;-50
2022/04/21 04:20:31;;;;;;;;;80.67;62.33;;;;;1.91;87.33;99229.59;6310816;20;2878428;-48
2022/04/21 04:23:01;;;;;;;;;86.00;60.67;;;;;1.86;88.05;99227.09;6312347;20;3660755;-47
2022/04/21 04:25:35;;;;;;;;;82.00;63.67;;;;;1.78;88.19;99229.13;6310985;20;3637749;-48
2022/04/21 04:28:04;;;;;;;;;91.00;67.00;;;;;1.74;87.59;99227.53;6310720;20;3655446;-50
2022/04/21 04:30:34;;;;;;;;;86.00;63.00;;;;;1.61;88.42;99237.63;6311306;20;3650375;-50
2022/04/21 04:33:07;;;;;;;;;88.67;64.00;;;;;1.77;88.03;99231.84;6312074;20;3638775;-49
2022/04/21 04:35:37;;;;;;;;;89.33;67.67;;;;;2.02;88.52;99234.53;6311888;20;3649197;-49
2022/04/21 04:38:06;;;;;;;;;86.67;64.33;;;;;2.18;87.26;99233.06;6313376;20;2888858;-49
2022/04/21 04:40:36;;;;;;;;;90.67;65.33;;;;;2.37;87.90;99233.28;6310906;20;3653421;-46
2022/04/21 04:43:06;;;;;;;;;91.00;66.67;;;;;2.91;85.36;99239.28;6312951;20;3659735;-49
2022/04/21 04:48:24;;;;;;;;;84.33;66.00;;;;;3.70;82.75;99241.47;6312051;20;3641996;-51
2022/04/21 04:50:53;;;;;;;;;86.00;65.00;;;;;5.60;73.95;99241.91;6312050;20;3638766;-48
2022/04/21 04:53:23;;;;;;;;;82.67;62.67;;;;;4.90;76.77;99241.63;6308711;20;3653338;-47
2022/04/21 04:55:52;;;;;;;;;83.67;63.67;;;;;6.40;70.96;99243.28;6312602;20;3629498;-48
2022/04/21 04:58:22;;;;;;;;;83.67;63.67;;;;;5.56;74.49;99237.69;6312360;20;3636677;-48
2022/04/21 05:00:52;;;;;;;;;86.33;65.00;;;;;5.70;74.37;99244.03;6309519;20;3649220;-46
2022/04/21 05:03:21;;;;;;;;;88.67;66.00;;;;;5.33;75.20;99247.63;6311627;20;3626391;-50
2022/04/21 05:05:51;;;;;;;;;78.33;60.67;;;;;5.02;76.39;99240.19;6313417;20;3622178;-46
2022/04/21 05:08:21;;;;;;;;;77.00;58.00;;;;;6.19;73.31;99240.78;6312159;20;3645062;-50
2022/04/21 05:10:53;;;;;;;;;80.00;60.00;;;;;6.78;69.99;99246.63;6308237;20;3637904;-51
2022/04/21 05:13:23;;;;;;;;;81.00;59.33;;;;;7.98;67.17;99256.88;6309939;20;3636673;-50
2022/04/21 05:15:53;;;;;;;;;75.33;59.00;;;;;10.11;60.24;99254.34;6308884;20;3626846;-49
2022/04/21 05:18:23;;;;;;;;;77.00;60.00;;;;;10.95;57.70;99254.94;6311207;20;3601391;-48
2022/04/21 05:20:52;;;;;;;;;76.00;57.00;;;;;11.28;55.88;99253.53;6309517;20;2820102;-47
2022/04/21 05:23:24;;;;;;;;;72.50;56.50;;;;;9.20;61.03;99251.31;6279998;20;3576385;-48
2022/04/21 05:25:54;;;;;;;;;65.67;51.00;;;;;8.84;62.63;99254.44;6308776;20;3626428;-50
2022/04/21 05:28:24;;;;;;;;;74.67;54.67;;;;;9.43;61.37;99257.91;6312016;20;3631487;-48
2022/04/21 05:31:01;;;;;;;;;66.67;53.33;;;;;9.21;60.63;99262.88;6308287;20;3613785;-49
2022/04/21 05:33:33;;;;;;;;;71.67;53.00;;;;;11.47;54.99;99267.38;6308592;20;3645070;-49
2022/04/21 05:36:04;;;;;;;;;69.00;53.00;;;;;11.78;54.25;99265.16;6279235;20;3636666;-49
2022/04/21 05:38:35;;;;;;;;;68.33;53.00;;;;;10.57;57.44;99266.50;6309342;20;3627316;-55
2022/04/21 05:41:05;;;;;;;;;67.00;53.50;;;;;12.42;54.28;99262.19;6313980;20;3525220;-53
2022/04/21 05:43:44;;;;;;;;;69.67;52.67;;;;;13.13;50.52;99265.66;6310341;20;3643994;-48
2022/04/21 05:46:15;;;;;;;;;52.00;42.00;;;;;13.23;49.80;99261.25;6278967;20;2873320;-49
2022/04/21 05:48:46;;;;;;;;;61.00;48.33;;;;;12.54;51.12;99265.81;6279477;20;3613889;-54
2022/04/21 05:51:16;;;;;;;;;58.00;48.00;;;;;12.92;50.62;99260.13;6310625;20;2859710;-55
2022/04/21 05:53:50;;;;;;;;;57.67;48.33;;;;;11.82;52.92;99263.94;6310057;20;3605629;-53
2022/04/21 05:56:20;;;;;;;;;61.67;49.67;;;;;12.87;50.96;99263.16;6312150;20;3620066;-49
2022/04/21 05:58:51;;;;;;;;;66.67;52.00;;;;;12.52;51.65;99266.75;6315197;20;3624202;-51
2022/04/21 06:01:21;;;;;;;;;62.00;50.00;;;;;10.40;56.98;99265.00;6315131;20;3613909;-51
2022/04/21 06:03:52;;;;;;;;;63.67;49.00;;;;;10.90;56.15;99270.50;6313430;20;3625278;-50
2022/04/21 06:06:21;;;;;;;;;64.00;50.00;;;;;10.35;58.05;99266.25;6311485;20;2877477;-51
2022/04/21 06:08:51;;;;;;;;;63.33;51.00;;;;;10.57;57.89;99279.09;6313690;20;2872628;-52
2022/04/21 06:11:22;;;;;;;;;60.33;47.00;;;;;11.29;56.04;99280.28;6316108;20;3628378;-53
2022/04/21 06:13:52;;;;;;;;;61.33;48.00;;;;;11.41;55.25;99278.56;6313809;20;3627362;-53
2022/04/21 06:16:22;;;;;;;;;56.00;47.33;;;;;11.74;54.28;99277.09;6311914;20;2851405;-53
2022/04/21 06:18:52;;;;;;;;;55.33;47.00;;;;;11.88;54.41;99286.88;6311816;20;3612848;-48
2022/04/21 06:21:21;;;;;;;;;56.33;45.00;;;;;12.15;53.65;99286.66;6314461;20;3610786;-60
2022/04/21 06:23:51;;;;;;;;;60.33;46.67;;;;;12.44;53.41;99279.94;6314213;20;2879593;-60
2022/04/21 06:26:25;;;;;;;;;53.00;43.33;;;;;11.97;52.68;99276.28;6313297;20;2862974;-60
2022/04/21 06:28:57;;;;;;;;;55.67;45.00;;;;;12.21;51.85;99272.75;6316021;20;2859679;-60
2022/04/21 06:31:25;;;;;;;;;52.50;44.00;;;;;14.48;47.37;99278.97;6312822;20;2844001;-50
2022/04/21 06:33:55;;;;;;;;;48.33;38.33;;;;;16.92;40.75;99288.91;6284096;20;2863923;-48
2022/04/21 06:36:25;;;;;;;;;51.67;44.33;;;;;18.05;38.56;99293.41;6313239;20;3607010;-50
2022/04/21 06:38:54;;;;;;;;;51.00;43.00;;;;;19.13;36.08;99294.28;6313737;20;2846513;-55
2022/04/21 06:41:23;;;;;;;;;52.33;41.00;;;;;20.68;33.31;99300.44;6279920;20;3598133;-52
2022/04/21 06:49:35;;;;;;;;;50.33;39.33;;;;;21.32;31.64;99294.28;6311752;20;3595030;-56
2022/04/21 06:52:06;;;;;;;;;50.33;40.67;;;;;22.90;30.43;99301.44;6280152;20;2856636;-57
2022/04/21 06:54:34;;;;;;;;;49.00;41.00;;;;;23.32;28.91;99300.09;6317640;20;3600250;-55
2022/04/21 06:57:03;;;;;;;;;50.00;41.33;;;;;23.17;28.76;99296.47;6283758;20;3609803;-56
2022/04/21 06:59:32;;;;;;;;;46.67;39.33;;;;;23.64;27.75;99295.28;6283286;20;3575390;-60
2022/04/21 07:02:02;;;;;;;;;49.33;40.67;;;;;23.82;28.33;99300.44;6286008;20;3588974;-59
2022/04/21 07:04:32;;;;;;;;;44.67;37.33;;;;;24.06;28.00;99302.03;6287133;20;2859745;-59
2022/04/21 07:07:00;;;;;;;;;41.00;36.00;;;;;24.03;28.30;99302.41;6319181;20;3582575;-60
2022/04/21 07:09:29;;;;;;;;;33.33;32.00;;;;;22.64;29.32;99299.06;6286487;20;3602324;-59
2022/04/21 07:11:59;;;;;;;;;37.00;32.33;;;;;20.02;33.04;99290.38;6289114;20;3607559;-59
2022/04/21 07:14:27;;;;;;;;;47.00;38.67;;;;;16.57;40.08;99279.50;6288706;20;3598147;-59
2022/04/21 07:16:58;;;;;;;;;43.50;37.50;;;;;16.18;41.25;99274.88;6286771;20;2833701;-58
2022/04/21 07:19:27;;;;;;;;;43.00;34.33;;;;;17.23;40.13;99267.88;6284438;20;3612843;-59
2022/04/21 07:21:56;;;;;;;;;36.00;33.00;;;;;20.94;32.75;99291.25;6319466;20;3617068;-58
2022/04/21 07:24:24;;;;;;;;;34.00;32.00;;;;;23.34;28.63;99295.28;6285693;20;3586728;-60
2022/04/21 07:26:53;;;;;;;;;25.33;23.00;;;;;22.47;28.84;99289.28;6283594;20;3580920;-59
2022/04/21 07:29:22;;;;;;;;;34.00;31.00;;;;;23.76;27.91;99298.47;6283210;20;3598282;-59
2022/04/21 07:31:50;;;;;;;;;34.00;31.33;;;;;19.56;33.61;99285.19;6285533;20;3590947;-60
2022/04/21 07:34:20;;;;;;;;;18.00;18.00;;;;;17.22;38.89;99277.88;6283626;20;2826556;-60
2022/04/21 07:36:49;;;;;;;;;27.00;24.33;;;;;16.58;38.80;99271.19;6283109;20;3596093;-58
2022/04/21 07:39:18;;;;;;;;;22.33;21.33;;;;;16.36;40.24;99277.75;6283572;20;3566037;-58
2022/04/21 07:41:47;;;;;;;;;20.50;19.00;;;;;16.46;39.63;99283.19;6283320;20;2839859;-59
2022/04/21 07:44:23;;;;;;;;;22.00;21.00;;;;;16.01;38.59;99276.44;6287827;20;2664842;-59
2022/04/21 07:46:52;;;;;;;;;18.50;18.50;;;;;16.14;39.00;99278.00;6315431;20;2831529;-59
2022/04/21 07:54:55;;;;;;;;;18.67;18.67;;;;;16.06;38.60;99277.84;6321106;20;3568988;-57
2022/04/21 07:57:25;;;;;;;;;24.33;22.33;;;;;16.60;39.19;99274.63;6317150;20;2853544;-58
2022/04/21 07:59:54;;;;;;;;;23.00;20.33;;;;;16.86;37.33;99274.94;6314285;20;2848190;-58
2022/04/21 08:02:23;;;;;;;;;18.67;18.33;;;;;16.69;39.12;99278.31;6320882;20;3567348;-57
2022/04/21 08:04:52;;;;;;;;;20.00;20.00;;;;;16.75;38.56;99272.34;6279740;20;2839919;-58
2022/04/21 08:07:19;;;;;;;;;19.00;17.50;;;;;16.52;37.73;99271.78;6284342;20;2491959;-59
2022/04/21 08:09:47;;;;;;;;;19.50;15.50;;;;;16.17;37.72;99277.75;6284522;20;2823186;-58
2022/04/21 08:12:16;;;;;;;;;20.50;18.00;;;;;16.02;37.83;99264.59;6285255;20;2841910;-59
2022/04/21 08:14:45;;;;;;;;;19.00;18.00;;;;;16.55;36.87;99267.94;6285501;20;2829417;-58
2022/04/21 08:17:13;;;;;;;;;16.00;15.00;;;;;15.84;36.70;99260.84;6286682;20;2813418;-57
2022/04/21 08:19:42;;;;;;;;;19.00;16.00;;;;;16.02;37.32;99259.19;6309897;20;3556621;-58
2022/04/21 08:22:10;;;;;;;;;22.50;21.00;;;;;16.31;37.25;99266.50;6280300;20;2491942;-59
2022/04/21 08:33:18;;;;;;;;;12.00;12.00;;;;;16.83;35.84;99263.53;6289407;20;2796100;-57
2022/04/21 08:35:50;;;;;;;;;16.00;15.00;;;;;17.20;35.45;99269.00;6283980;20;2818035;-57
2022/04/21 08:38:18;;;;;;;;;13.00;13.00;;;;;16.63;35.47;99257.22;6284303;20;2690899;-58
2022/04/21 08:40:56;;;;;;;;;16.00;15.00;;;;;17.19;34.36;99248.28;6311276;20;2491928;-58
2022/04/21 08:43:27;;;;;;;;;16.00;16.00;;;;;17.24;34.58;99259.56;6284505;20;3558564;-56
2022/04/21 08:45:56;;;;;;;;;16.00;15.00;;;;;17.11;35.77;99256.31;6282717;20;2494022;-60
2022/04/21 08:48:26;;;;;;;;;14.00;13.00;;;;;16.89;34.28;99261.06;6284790;20;3537736;-56
2022/04/21 08:50:54;;;;;;;;;17.00;17.00;;;;;17.63;33.12;99256.69;6284630;20;2826308;-59
2022/04/21 08:53:24;;;;;;;;;19.00;17.00;;;;;17.68;34.05;99256.25;6282864;20;2487799;-59
2022/04/21 08:55:54;;;;;;;;;16.00;15.00;;;;;17.20;35.86;99255.44;6316556;20;2815879;-59
2022/04/21 08:58:22;;;;;;;;;19.00;16.00;;;;;17.43;34.62;99255.94;6282676;20;2828389;-59
2022/04/21 09:00:54;;;;;;;;;15.50;15.50;;;;;17.73;36.46;99264.81;6283611;20;2825284;-59
2022/04/21 09:03:22;;;;;;;;;18.00;17.00;;;;;18.11;35.75;99257.47;6286193;20;2831531;-59
2022/04/21 09:05:51;;;;;;;;;19.00;19.00;;;;;16.42;35.52;99258.22;6286384;20;2830586;-59
2022/04/21 09:08:28;;;;;;;;;19.00;17.00;;;;;16.95;34.98;99261.50;6284002;20;2834780;-59
2022/04/21 09:11:09;;;;;;;;;17.50;17.50;;;;;16.92;35.07;99261.78;6283678;20;2832604;-59
2022/04/21 09:13:41;;;;;;;;;20.00;19.00;;;;;17.60;33.05;99262.44;6287706;20;3575210;-59
2022/04/21 09:16:14;;;;;;;;;21.00;18.67;;;;;18.20;35.75;99265.56;6314028;20;2846149;-59
2022/04/21 09:18:48;;;;;;;;;20.00;19.50;;;;;16.61;35.44;99257.38;6314078;20;2838785;-58
2022/04/21 09:21:17;;;;;;;;;23.50;17.50;;;;;17.03;34.79;99267.03;6282572;20;2836816;-58
2022/04/21 09:23:48;;;;;;;;;16.00;16.00;;;;;17.33;35.19;99258.69;6283149;20;2831543;-60
2022/04/21 09:26:21;;;;;;;;;18.50;15.50;;;;;17.63;33.41;99258.56;6279535;20;2811803;-59
2022/04/21 09:28:56;;;;;;;;;18.00;15.67;;;;;18.18;31.81;99259.41;6283615;20;3556520;-60
2022/04/21 09:31:27;;;;;;;;;17.00;15.00;;;;;17.69;33.48;99253.41;6280731;20;2491945;-59
2022/04/21 09:33:56;;;;;;;;;14.50;14.50;;;;;17.48;32.73;99258.19;6282641;20;2810816;-58
2022/04/21 09:36:25;;;;;;;;;17.33;17.33;;;;;18.08;32.47;99265.94;6285153;20;3563145;-58
2022/04/21 09:38:59;;;;;;;;;17.33;15.67;;;;;17.56;31.89;99255.59;6317137;20;3549205;-59
2022/04/21 09:41:31;;;;;;;;;17.00;15.00;;;;;18.17;30.37;99260.44;6315691;20;2491964;-59
2022/04/21 09:46:07;;;;;;;;;24.33;21.00;;;;;18.14;31.97;99266.19;6318622;20;3588816;-60
2022/04/21 09:47:06;;;;;;;;;19.00;16.33;;;;;17.92;34.42;99272.03;6280580;20;2492028;-61
2022/04/21 09:49:39;;;;;;;;;21.00;20.00;;;;;17.94;34.87;99264.59;6317408;20;3585778;-60
2022/04/21 09:52:08;;;;;;;;;23.67;22.00;;;;;17.41;34.64;99257.94;6285980;20;2847158;-60
2022/04/21 09:54:40;;;;;;;;;19.50;19.50;;;;;17.85;34.01;99260.94;6315292;20;2819207;-60
2022/04/21 09:57:09;;;;;;;;;20.33;18.33;;;;;18.46;34.17;99264.81;6284538;20;3567065;-60
2022/04/21 09:59:40;;;;;;;;;17.67;17.67;;;;;17.40;33.79;99258.09;6316718;20;3579529;-60
2022/04/21 10:02:11;;;;;;;;;18.50;18.50;;;;;17.61;32.72;99258.69;6281762;20;2839883;-59
2022/04/21 10:04:47;;;;;;;;;16.50;16.50;;;;;17.83;33.76;99262.09;6283360;20;2827386;-59
2022/04/21 10:07:17;;;;;;;;;18.00;18.00;;;;;18.13;35.14;99252.75;6280140;20;2827469;-61
2022/04/21 10:09:46;;;;;;;;;24.00;19.00;;;;;18.63;34.08;99250.31;6281671;20;2500357;-60
2022/04/21 10:12:15;;;;;;;;;17.00;16.67;;;;;17.96;34.61;99246.28;6313597;20;3564832;-61
2022/04/21 10:14:44;;;;;;;;;21.67;19.00;;;;;17.79;34.03;99245.22;6314972;20;3555499;-59
2022/04/21 10:17:13;;;;;;;;;20.33;19.67;;;;;17.07;34.05;99242.19;6313855;20;3569239;-61
2022/04/21 10:19:42;;;;;;;;;16.33;15.67;;;;;16.96;34.40;99219.84;6314505;20;2827411;-60
2022/04/21 10:22:15;;;;;;;;;18.00;16.00;;;;;18.09;33.45;99230.47;6310811;20;2828863;-60
2022/04/21 10:24:46;;;;;;;;;17.00;17.00;;;;;17.69;35.21;99226.25;6283014;20;2833640;-59
2022/04/21 10:27:47;;;;;;;;;50.75;31.25;;;;;17.36;33.90;99222.25;6284376;20;4380425;-60
2022/04/21 10:30:31;;;;;;;;;18.00;18.00;;;;;17.54;35.04;99222.31;6311610;20;2837817;-60
2022/04/21 10:33:03;;;;;;;;;18.00;18.00;;;;;17.94;35.61;99221.13;6284492;20;3573211;-60
2022/04/21 10:35:34;;;;;;;;;17.67;17.67;;;;;17.99;33.09;99225.09;6286089;20;3565909;-60
2022/04/21 10:38:18;;;;;;;;;18.50;17.00;;;;;18.11;34.16;99222.13;6282737;20;2821146;-60
2022/04/21 10:41:08;;;;;;;;;14.00;14.00;;;;;18.86;34.40;99220.81;6283862;20;3533595;-62
2022/04/21 10:44:03;;;;;;;;;18.00;16.00;;;;;18.36;34.40;99221.38;6311882;20;2829492;-60
2022/04/21 10:46:32;;;;;;;;;14.00;14.00;;;;;18.34;33.88;99208.94;6282123;20;3533702;-60
2022/04/21 10:49:02;;;;;;;;;14.67;14.67;;;;;17.47;33.13;99207.63;6281879;20;3537810;-60
2022/04/21 10:57:38;;;;;;;;;16.00;15.00;;;;;18.58;33.66;99198.28;6281706;20;3545139;-60
2022/04/21 11:00:13;;;;;;;;;14.00;14.00;;;;;18.42;33.58;99203.59;6273868;20;3531564;-60
2022/04/21 11:02:44;;;;;;;;;17.00;17.00;;;;;17.69;33.26;99196.38;6277536;20;2834709;-61
2022/04/21 11:05:22;;;;;;;;;16.33;14.67;;;;;18.09;33.80;99196.97;6280484;20;3541035;-58
2022/04/21 11:08:00;;;;;;;;;13.67;13.67;;;;;18.10;33.56;99193.28;6281273;20;3521243;-60
2022/04/21 11:10:42;;;;;;;;;15.00;15.00;;;;;18.57;33.13;99195.75;6277178;20;2808665;-60
2022/04/21 11:13:18;;;;;;;;;13.00;13.00;;;;;18.33;34.90;99189.09;6281165;20;2804542;-60
2022/04/21 11:15:53;;;;;;;;;16.33;15.67;;;;;18.05;34.81;99185.56;6277141;20;3557540;-60
2022/04/21 11:18:31;;;;;;;;;17.00;17.00;;;;;16.50;36.99;99187.06;6313084;20;2828552;-60
2022/04/21 11:21:23;;;;;;;;;15.50;14.50;;;;;17.06;36.04;99183.53;6285188;20;2808603;-60
2022/04/21 11:23:51;;;;;;;;;15.33;15.33;;;;;17.85;35.47;99189.44;6282353;20;3544060;-59
2022/04/21 11:26:30;;;;;;;;;14.33;14.33;;;;;18.37;33.91;99185.03;6283374;20;3538893;-60
2022/04/21 11:29:04;;;;;;;;;15.00;15.00;;;;;18.24;34.07;99189.16;6277952;20;3537775;-60
2022/04/21 11:31:33;;;;;;;;;14.33;14.33;;;;;18.58;34.47;99181.97;6285358;20;3528417;-60
2022/04/21 11:34:03;;;;;;;;;11.33;11.33;;;;;18.05;35.13;99169.28;6312450;20;3533607;-60
2022/04/21 11:36:38;;;;;;;;;15.00;15.00;;;;;18.18;34.70;99177.91;6283583;20;2490004;-55
2022/04/21 11:39:08;;;;;;;;;11.00;11.00;;;;;17.80;34.99;99175.47;6280676;20;3515896;-48
2022/04/21 11:41:47;;;;;;;;;20.00;19.00;;;;;17.99;35.11;99178.06;6311758;20;2839903;-50
2022/04/21 11:44:23;;;;;;;;;15.67;15.67;;;;;18.06;34.14;99171.00;6283370;20;3545073;-49
2022/04/21 11:46:52;;;;;;;;;16.67;16.33;;;;;17.40;35.16;99166.66;6282692;20;2821111;-48
2022/04/21 11:49:21;;;;;;;;;15.67;14.67;;;;;17.36;36.92;99167.13;6313885;20;3547253;-52
2022/04/21 11:51:53;;;;;;;;;15.50;15.50;;;;;17.29;36.99;99175.84;6289060;20;2492009;-47
2022/04/21 11:54:21;;;;;;;;;16.00;15.50;;;;;17.23;36.71;99165.63;6283025;20;2483667;-49
2022/04/21 11:56:52;;;;;;;;;13.50;13.50;;;;;17.29;36.04;99170.44;6284053;20;2803403;-51
2022/04/21 11:59:20;;;;;;;;;14.00;14.00;;;;;17.82;35.09;99174.31;6282856;20;2500320;-47
2022/04/21 12:07:27;;;;;;;;;14.67;14.00;;;;;18.12;34.40;99159.50;6278944;20;3531583;-56
2022/04/21 12:09:56;;;;;;;;;15.33;14.33;;;;;18.02;34.30;99157.88;6279894;20;3538926;-60
2022/04/21 12:12:23;;;;;;;;;13.00;13.00;;;;;17.40;34.93;99149.53;6283596;20;2788867;-59